sensor_id;sensor_type;location;lat;lon;timestamp;temperature;humidity
28845;DHT22;15976;47.938;7.758;2023-07-09T00:02:16;23.50;56.00
28845;DHT22;15976;47.938;7.758;2023-07-09T00:04:44;23.50;55.90
28845;DHT22;15976;47.938;7.758;2023-07-09T00:07:29;23.40;56.00
28845;DHT22;15976;47.938;7.758;2023-07-09T00:09:57;23.40;56.10
28845;DHT22;15976;47.938;7.758;2023-07-09T00:12:25;23.40;56.10
28845;DHT22;15976;47.938;7.758;2023-07-09T00:14:52;23.40;55.80
28845;DHT22;15976;47.938;7.758;2023-07-09T00:17:26;23.30;55.50
28845;DHT22;15976;47.938;7.758;2023-07-09T00:19:54;23.30;55.30
28845;DHT22;15976;47.938;7.758;2023-07-09T00:22:21;23.30;55.40
28845;DHT22;15976;47.938;7.758;2023-07-09T00:24:51;23.20;55.00
28845;DHT22;15976;47.938;7.758;2023-07-09T00:27:21;23.20;55.10
28845;DHT22;15976;47.938;7.758;2023-07-09T00:29:49;23.20;55.50
28845;DHT22;15976;47.938;7.758;2023-07-09T00:32:18;23.20;55.50
28845;DHT22;15976;47.938;7.758;2023-07-09T00:34:47;23.10;55.60
28845;DHT22;15976;47.938;7.758;2023-07-09T00:37:16;23.10;55.70
28845;DHT22;15976;47.938;7.758;2023-07-09T00:39:47;23.10;56.10
28845;DHT22;15976;47.938;7.758;2023-07-09T00:42:19;23.10;56.40
28845;DHT22;15976;47.938;7.758;2023-07-09T00:44:49;23.10;56.50
28845;DHT22;15976;47.938;7.758;2023-07-09T00:47:21;23.10;56.60
28845;DHT22;15976;47.938;7.758;2023-07-09T00:50:10;23.00;56.60
28845;DHT22;15976;47.938;7.758;2023-07-09T00:52:49;23.00;56.70
28845;DHT22;15976;47.938;7.758;2023-07-09T00:55:20;23.00;56.80
28845;DHT22;15976;47.938;7.758;2023-07-09T00:57:51;23.00;57.00
28845;DHT22;15976;47.938;7.758;2023-07-09T01:00:32;22.90;57.10
28845;DHT22;15976;47.938;7.758;2023-07-09T01:03:05;22.90;57.10
28845;DHT22;15976;47.938;7.758;2023-07-09T01:05:36;22.90;56.80
28845;DHT22;15976;47.938;7.758;2023-07-09T01:08:05;22.80;56.70
28845;DHT22;15976;47.938;7.758;2023-07-09T01:10:32;22.80;56.90
28845;DHT22;15976;47.938;7.758;2023-07-09T01:12:59;22.80;57.10
28845;DHT22;15976;47.938;7.758;2023-07-09T01:15:26;22.80;57.40
28845;DHT22;15976;47.938;7.758;2023-07-09T01:17:53;22.80;57.60
28845;DHT22;15976;47.938;7.758;2023-07-09T01:20:21;22.70;57.60
28845;DHT22;15976;47.938;7.758;2023-07-09T01:22:50;22.70;57.80
28845;DHT22;15976;47.938;7.758;2023-07-09T01:25:17;22.70;58.00
28845;DHT22;15976;47.938;7.758;2023-07-09T01:27:46;22.70;58.10
28845;DHT22;15976;47.938;7.758;2023-07-09T01:30:15;22.70;58.30
28845;DHT22;15976;47.938;7.758;2023-07-09T01:32:42;22.70;58.30
28845;DHT22;15976;47.938;7.758;2023-07-09T01:35:14;22.60;58.40
28845;DHT22;15976;47.938;7.758;2023-07-09T01:37:42;22.60;58.60
28845;DHT22;15976;47.938;7.758;2023-07-09T01:40:12;22.60;58.70
28845;DHT22;15976;47.938;7.758;2023-07-09T01:42:57;22.50;59.00
28845;DHT22;15976;47.938;7.758;2023-07-09T01:45:28;22.50;59.20
28845;DHT22;15976;47.938;7.758;2023-07-09T01:47:55;22.50;59.30
28845;DHT22;15976;47.938;7.758;2023-07-09T01:50:23;22.50;59.00
28845;DHT22;15976;47.938;7.758;2023-07-09T01:52:52;22.50;59.20
28845;DHT22;15976;47.938;7.758;2023-07-09T01:55:21;22.40;59.20
28845;DHT22;15976;47.938;7.758;2023-07-09T01:57:48;22.40;59.20
28845;DHT22;15976;47.938;7.758;2023-07-09T02:00:18;22.40;59.10
28845;DHT22;15976;47.938;7.758;2023-07-09T02:02:47;22.40;58.90
28845;DHT22;15976;47.938;7.758;2023-07-09T02:05:17;22.40;59.00
28845;DHT22;15976;47.938;7.758;2023-07-09T02:07:45;22.40;59.30
28845;DHT22;15976;47.938;7.758;2023-07-09T02:10:15;22.30;59.50
28845;DHT22;15976;47.938;7.758;2023-07-09T02:12:43;22.30;59.80
28845;DHT22;15976;47.938;7.758;2023-07-09T02:15:10;22.30;60.00
28845;DHT22;15976;47.938;7.758;2023-07-09T02:17:37;22.20;60.40
28845;DHT22;15976;47.938;7.758;2023-07-09T02:20:05;22.20;60.80
28845;DHT22;15976;47.938;7.758;2023-07-09T02:22:35;22.10;61.20
28845;DHT22;15976;47.938;7.758;2023-07-09T02:25:03;22.00;61.60
28845;DHT22;15976;47.938;7.758;2023-07-09T02:27:30;22.00;61.80
28845;DHT22;15976;47.938;7.758;2023-07-09T02:29:58;22.00;62.10
28845;DHT22;15976;47.938;7.758;2023-07-09T02:32:27;21.90;62.30
28845;DHT22;15976;47.938;7.758;2023-07-09T02:34:55;21.90;62.60
28845;DHT22;15976;47.938;7.758;2023-07-09T02:37:26;21.90;62.80
28845;DHT22;15976;47.938;7.758;2023-07-09T02:39:53;21.80;62.90
28845;DHT22;15976;47.938;7.758;2023-07-09T02:42:21;21.80;63.00
28845;DHT22;15976;47.938;7.758;2023-07-09T02:44:49;21.70;63.20
28845;DHT22;15976;47.938;7.758;2023-07-09T02:47:18;21.70;63.30
28845;DHT22;15976;47.938;7.758;2023-07-09T02:49:47;21.80;63.40
28845;DHT22;15976;47.938;7.758;2023-07-09T02:52:14;21.70;63.40
28845;DHT22;15976;47.938;7.758;2023-07-09T02:54:41;21.70;63.40
28845;DHT22;15976;47.938;7.758;2023-07-09T02:57:08;21.60;63.10
28845;DHT22;15976;47.938;7.758;2023-07-09T02:59:35;21.70;62.30
28845;DHT22;15976;47.938;7.758;2023-07-09T03:02:03;21.60;62.10
28845;DHT22;15976;47.938;7.758;2023-07-09T03:04:31;21.60;61.80
28845;DHT22;15976;47.938;7.758;2023-07-09T03:06:59;21.60;61.60
28845;DHT22;15976;47.938;7.758;2023-07-09T03:09:27;21.60;61.30
28845;DHT22;15976;47.938;7.758;2023-07-09T03:11:55;21.60;61.60
28845;DHT22;15976;47.938;7.758;2023-07-09T03:14:22;21.60;62.10
28845;DHT22;15976;47.938;7.758;2023-07-09T03:16:50;21.50;62.50
28845;DHT22;15976;47.938;7.758;2023-07-09T03:19:17;21.50;62.60
28845;DHT22;15976;47.938;7.758;2023-07-09T03:21:44;21.50;62.60
28845;DHT22;15976;47.938;7.758;2023-07-09T03:24:11;21.50;63.10
28845;DHT22;15976;47.938;7.758;2023-07-09T03:26:47;21.40;63.20
28845;DHT22;15976;47.938;7.758;2023-07-09T03:29:14;21.40;63.40
28845;DHT22;15976;47.938;7.758;2023-07-09T03:31:42;21.40;63.80
28845;DHT22;15976;47.938;7.758;2023-07-09T03:34:09;21.30;64.00
28845;DHT22;15976;47.938;7.758;2023-07-09T03:36:37;21.30;64.40
28845;DHT22;15976;47.938;7.758;2023-07-09T03:39:05;21.20;64.60
28845;DHT22;15976;47.938;7.758;2023-07-09T03:41:32;21.20;64.90
28845;DHT22;15976;47.938;7.758;2023-07-09T03:43:59;21.20;65.00
28845;DHT22;15976;47.938;7.758;2023-07-09T03:46:27;21.20;65.00
28845;DHT22;15976;47.938;7.758;2023-07-09T03:48:54;21.20;65.10
28845;DHT22;15976;47.938;7.758;2023-07-09T03:51:21;21.20;65.90
28845;DHT22;15976;47.938;7.758;2023-07-09T03:53:48;21.10;65.20
28845;DHT22;15976;47.938;7.758;2023-07-09T03:56:15;21.10;65.30
28845;DHT22;15976;47.938;7.758;2023-07-09T03:58:42;21.10;65.70
28845;DHT22;15976;47.938;7.758;2023-07-09T04:01:09;21.00;65.60
28845;DHT22;15976;47.938;7.758;2023-07-09T04:03:36;21.00;65.80
28845;DHT22;15976;47.938;7.758;2023-07-09T04:06:03;21.00;65.90
28845;DHT22;15976;47.938;7.758;2023-07-09T04:08:31;21.00;66.00
28845;DHT22;15976;47.938;7.758;2023-07-09T04:11:00;21.00;66.10
28845;DHT22;15976;47.938;7.758;2023-07-09T04:13:28;21.00;66.20
28845;DHT22;15976;47.938;7.758;2023-07-09T04:15:56;20.90;66.10
28845;DHT22;15976;47.938;7.758;2023-07-09T04:18:27;20.90;66.20
28845;DHT22;15976;47.938;7.758;2023-07-09T04:20:54;20.90;66.20
28845;DHT22;15976;47.938;7.758;2023-07-09T04:23:21;21.00;66.40
28845;DHT22;15976;47.938;7.758;2023-07-09T04:25:48;21.00;66.30
28845;DHT22;15976;47.938;7.758;2023-07-09T04:28:15;21.00;66.30
28845;DHT22;15976;47.938;7.758;2023-07-09T04:30:50;21.00;66.30
28845;DHT22;15976;47.938;7.758;2023-07-09T04:33:18;21.00;66.50
28845;DHT22;15976;47.938;7.758;2023-07-09T04:35:47;21.00;66.60
28845;DHT22;15976;47.938;7.758;2023-07-09T04:38:15;21.00;66.80
28845;DHT22;15976;47.938;7.758;2023-07-09T04:40:43;21.10;66.90
28845;DHT22;15976;47.938;7.758;2023-07-09T04:43:10;21.10;67.00
28845;DHT22;15976;47.938;7.758;2023-07-09T04:45:37;21.10;67.00
28845;DHT22;15976;47.938;7.758;2023-07-09T04:48:05;21.10;67.00
28845;DHT22;15976;47.938;7.758;2023-07-09T04:50:33;21.10;66.60
28845;DHT22;15976;47.938;7.758;2023-07-09T04:53:00;21.20;66.50
28845;DHT22;15976;47.938;7.758;2023-07-09T04:55:27;21.20;66.60
28845;DHT22;15976;47.938;7.758;2023-07-09T04:57:54;21.20;66.70
28845;DHT22;15976;47.938;7.758;2023-07-09T05:00:21;21.20;66.60
28845;DHT22;15976;47.938;7.758;2023-07-09T05:02:48;21.20;66.70
28845;DHT22;15976;47.938;7.758;2023-07-09T05:05:16;21.20;66.80
28845;DHT22;15976;47.938;7.758;2023-07-09T05:07:43;21.20;67.00
28845;DHT22;15976;47.938;7.758;2023-07-09T05:10:10;21.20;67.10
28845;DHT22;15976;47.938;7.758;2023-07-09T05:12:47;21.30;67.20
28845;DHT22;15976;47.938;7.758;2023-07-09T05:15:15;21.40;67.20
28845;DHT22;15976;47.938;7.758;2023-07-09T05:17:42;21.50;67.10
28845;DHT22;15976;47.938;7.758;2023-07-09T05:20:10;21.50;67.00
28845;DHT22;15976;47.938;7.758;2023-07-09T05:22:37;21.50;66.60
28845;DHT22;15976;47.938;7.758;2023-07-09T05:25:04;21.60;66.50
28845;DHT22;15976;47.938;7.758;2023-07-09T05:27:32;21.70;66.40
28845;DHT22;15976;47.938;7.758;2023-07-09T05:29:59;21.70;66.10
28845;DHT22;15976;47.938;7.758;2023-07-09T05:32:27;21.80;65.90
28845;DHT22;15976;47.938;7.758;2023-07-09T05:34:54;21.90;65.90
28845;DHT22;15976;47.938;7.758;2023-07-09T05:37:21;21.90;65.60
28845;DHT22;15976;47.938;7.758;2023-07-09T05:39:48;22.00;65.50
28845;DHT22;15976;47.938;7.758;2023-07-09T05:42:15;22.00;65.50
28845;DHT22;15976;47.938;7.758;2023-07-09T05:44:42;22.10;65.50
28845;DHT22;15976;47.938;7.758;2023-07-09T05:47:09;22.20;65.40
28845;DHT22;15976;47.938;7.758;2023-07-09T05:49:38;22.20;65.40
28845;DHT22;15976;47.938;7.758;2023-07-09T05:52:05;22.30;65.30
28845;DHT22;15976;47.938;7.758;2023-07-09T05:54:33;22.40;65.10
28845;DHT22;15976;47.938;7.758;2023-07-09T05:57:00;22.50;64.90
28845;DHT22;15976;47.938;7.758;2023-07-09T05:59:27;22.60;64.50
28845;DHT22;15976;47.938;7.758;2023-07-09T06:01:54;22.70;63.70
28845;DHT22;15976;47.938;7.758;2023-07-09T06:04:21;22.80;63.20
28845;DHT22;15976;47.938;7.758;2023-07-09T06:06:48;22.80;63.60
28845;DHT22;15976;47.938;7.758;2023-07-09T06:09:15;22.90;62.30
28845;DHT22;15976;47.938;7.758;2023-07-09T06:11:42;23.00;62.20
28845;DHT22;15976;47.938;7.758;2023-07-09T06:14:10;23.10;61.90
28845;DHT22;15976;47.938;7.758;2023-07-09T06:16:38;23.20;61.70
28845;DHT22;15976;47.938;7.758;2023-07-09T06:19:05;23.30;61.30
28845;DHT22;15976;47.938;7.758;2023-07-09T06:21:32;23.40;60.80
28845;DHT22;15976;47.938;7.758;2023-07-09T06:23:59;23.50;60.60
28845;DHT22;15976;47.938;7.758;2023-07-09T06:26:26;23.60;60.70
28845;DHT22;15976;47.938;7.758;2023-07-09T06:28:53;23.60;60.40
28845;DHT22;15976;47.938;7.758;2023-07-09T06:31:20;23.70;60.30
28845;DHT22;15976;47.938;7.758;2023-07-09T06:33:48;23.90;60.40
28845;DHT22;15976;47.938;7.758;2023-07-09T06:36:15;24.00;60.50
28845;DHT22;15976;47.938;7.758;2023-07-09T06:38:42;24.00;60.40
28845;DHT22;15976;47.938;7.758;2023-07-09T06:41:09;24.10;60.40
28845;DHT22;15976;47.938;7.758;2023-07-09T06:43:36;24.30;60.70
28845;DHT22;15976;47.938;7.758;2023-07-09T06:46:07;24.30;60.00
28845;DHT22;15976;47.938;7.758;2023-07-09T06:48:38;24.50;59.70
28845;DHT22;15976;47.938;7.758;2023-07-09T06:51:04;24.50;59.50
28845;DHT22;15976;47.938;7.758;2023-07-09T06:53:32;24.70;59.30
28845;DHT22;15976;47.938;7.758;2023-07-09T06:55:59;24.80;59.10
28845;DHT22;15976;47.938;7.758;2023-07-09T06:58:28;24.90;58.80
28845;DHT22;15976;47.938;7.758;2023-07-09T07:00:59;25.00;58.80
28845;DHT22;15976;47.938;7.758;2023-07-09T07:03:27;25.10;58.70
28845;DHT22;15976;47.938;7.758;2023-07-09T07:05:56;25.20;58.60
28845;DHT22;15976;47.938;7.758;2023-07-09T07:08:25;25.30;58.40
28845;DHT22;15976;47.938;7.758;2023-07-09T07:10:57;25.40;58.40
28845;DHT22;15976;47.938;7.758;2023-07-09T07:15:57;25.60;58.00
28845;DHT22;15976;47.938;7.758;2023-07-09T07:18:24;25.80;58.00
28845;DHT22;15976;47.938;7.758;2023-07-09T07:20:51;25.90;57.80
28845;DHT22;15976;47.938;7.758;2023-07-09T07:23:18;26.00;57.20
28845;DHT22;15976;47.938;7.758;2023-07-09T07:25:46;26.10;56.90
28845;DHT22;15976;47.938;7.758;2023-07-09T07:28:14;26.20;56.70
28845;DHT22;15976;47.938;7.758;2023-07-09T07:30:44;26.30;56.40
28845;DHT22;15976;47.938;7.758;2023-07-09T07:33:14;26.50;56.30
28845;DHT22;15976;47.938;7.758;2023-07-09T07:35:42;26.80;56.40
28845;DHT22;15976;47.938;7.758;2023-07-09T07:38:30;27.00;56.20
28845;DHT22;15976;47.938;7.758;2023-07-09T07:40:56;27.30;55.80
28845;DHT22;15976;47.938;7.758;2023-07-09T07:43:23;27.50;55.30
28845;DHT22;15976;47.938;7.758;2023-07-09T07:45:51;27.70;55.00
28845;DHT22;15976;47.938;7.758;2023-07-09T07:48:18;28.00;54.80
28845;DHT22;15976;47.938;7.758;2023-07-09T07:50:46;28.30;54.30
28845;DHT22;15976;47.938;7.758;2023-07-09T07:53:15;28.60;53.70
28845;DHT22;15976;47.938;7.758;2023-07-09T07:55:42;28.90;53.10
28845;DHT22;15976;47.938;7.758;2023-07-09T07:58:11;29.20;52.50
28845;DHT22;15976;47.938;7.758;2023-07-09T08:00:39;29.50;51.70
28845;DHT22;15976;47.938;7.758;2023-07-09T08:03:07;29.90;50.70
28845;DHT22;15976;47.938;7.758;2023-07-09T08:05:34;30.10;50.00
28845;DHT22;15976;47.938;7.758;2023-07-09T08:08:01;30.30;49.70
28845;DHT22;15976;47.938;7.758;2023-07-09T08:10:28;30.60;48.90
28845;DHT22;15976;47.938;7.758;2023-07-09T08:12:55;30.80;47.70
28845;DHT22;15976;47.938;7.758;2023-07-09T08:15:24;31.00;47.30
28845;DHT22;15976;47.938;7.758;2023-07-09T08:17:51;31.10;46.80
28845;DHT22;15976;47.938;7.758;2023-07-09T08:20:19;31.30;46.20
28845;DHT22;15976;47.938;7.758;2023-07-09T08:22:46;31.50;45.80
28845;DHT22;15976;47.938;7.758;2023-07-09T08:25:13;31.70;45.50
28845;DHT22;15976;47.938;7.758;2023-07-09T08:27:40;32.10;44.90
28845;DHT22;15976;47.938;7.758;2023-07-09T08:30:08;32.30;44.40
28845;DHT22;15976;47.938;7.758;2023-07-09T08:32:35;32.60;44.20
28845;DHT22;15976;47.938;7.758;2023-07-09T08:35:02;33.00;43.90
28845;DHT22;15976;47.938;7.758;2023-07-09T08:37:32;33.30;43.20
28845;DHT22;15976;47.938;7.758;2023-07-09T08:39:59;33.60;42.70
28845;DHT22;15976;47.938;7.758;2023-07-09T08:42:35;33.80;42.10
28845;DHT22;15976;47.938;7.758;2023-07-09T08:45:40;34.00;41.50
28845;DHT22;15976;47.938;7.758;2023-07-09T08:48:27;34.40;41.20
28845;DHT22;15976;47.938;7.758;2023-07-09T08:51:22;34.90;40.00
28845;DHT22;15976;47.938;7.758;2023-07-09T08:53:53;35.10;39.80
28845;DHT22;15976;47.938;7.758;2023-07-09T08:56:22;35.50;39.20
28845;DHT22;15976;47.938;7.758;2023-07-09T08:58:51;35.70;39.00
28845;DHT22;15976;47.938;7.758;2023-07-09T09:01:34;36.10;38.50
28845;DHT22;15976;47.938;7.758;2023-07-09T09:04:24;36.40;37.80
28845;DHT22;15976;47.938;7.758;2023-07-09T09:07:10;36.80;37.00
28845;DHT22;15976;47.938;7.758;2023-07-09T09:09:56;37.00;36.90
28845;DHT22;15976;47.938;7.758;2023-07-09T09:12:31;37.30;36.60
28845;DHT22;15976;47.938;7.758;2023-07-09T09:15:04;37.70;36.30
28845;DHT22;15976;47.938;7.758;2023-07-09T09:17:38;37.90;35.40
28845;DHT22;15976;47.938;7.758;2023-07-09T09:20:17;38.10;35.60
28845;DHT22;15976;47.938;7.758;2023-07-09T09:23:10;38.30;35.20
28845;DHT22;15976;47.938;7.758;2023-07-09T09:25:41;38.50;35.10
28845;DHT22;15976;47.938;7.758;2023-07-09T09:28:11;39.00;34.60
28845;DHT22;15976;47.938;7.758;2023-07-09T09:30:38;39.00;33.80
28845;DHT22;15976;47.938;7.758;2023-07-09T09:33:08;38.50;34.30
28845;DHT22;15976;47.938;7.758;2023-07-09T09:35:40;38.20;34.90
28845;DHT22;15976;47.938;7.758;2023-07-09T09:38:12;37.80;35.70
28845;DHT22;15976;47.938;7.758;2023-07-09T09:40:40;37.70;35.90
28845;DHT22;15976;47.938;7.758;2023-07-09T09:43:18;37.90;35.80
28845;DHT22;15976;47.938;7.758;2023-07-09T09:45:50;38.40;35.30
28845;DHT22;15976;47.938;7.758;2023-07-09T09:48:20;38.80;34.60
28845;DHT22;15976;47.938;7.758;2023-07-09T09:50:54;39.30;34.10
28845;DHT22;15976;47.938;7.758;2023-07-09T09:53:25;39.70;33.60
28845;DHT22;15976;47.938;7.758;2023-07-09T09:55:53;39.90;33.30
28845;DHT22;15976;47.938;7.758;2023-07-09T09:58:28;40.30;33.10
28845;DHT22;15976;47.938;7.758;2023-07-09T10:00:58;40.90;32.70
28845;DHT22;15976;47.938;7.758;2023-07-09T10:03:35;41.40;32.20
28845;DHT22;15976;47.938;7.758;2023-07-09T10:06:18;41.90;31.40
28845;DHT22;15976;47.938;7.758;2023-07-09T10:11:31;41.40;31.60
28845;DHT22;15976;47.938;7.758;2023-07-09T10:16:52;41.70;31.10
28845;DHT22;15976;47.938;7.758;2023-07-09T10:19:45;42.10;30.80
28845;DHT22;15976;47.938;7.758;2023-07-09T10:22:48;42.70;29.90
28845;DHT22;15976;47.938;7.758;2023-07-09T10:31:42;44.30;28.50
28845;DHT22;15976;47.938;7.758;2023-07-09T10:34:34;44.60;28.10
28845;DHT22;15976;47.938;7.758;2023-07-09T10:39:57;44.70;27.20
28845;DHT22;15976;47.938;7.758;2023-07-09T10:42:39;44.70;27.40
28845;DHT22;15976;47.938;7.758;2023-07-09T10:45:16;45.00;27.20
28845;DHT22;15976;47.938;7.758;2023-07-09T10:47:51;45.40;26.50
28845;DHT22;15976;47.938;7.758;2023-07-09T10:52:53;46.20;25.90
28845;DHT22;15976;47.938;7.758;2023-07-09T10:55:29;46.50;25.60
28845;DHT22;15976;47.938;7.758;2023-07-09T10:58:11;46.80;25.00
28845;DHT22;15976;47.938;7.758;2023-07-09T11:00:42;46.90;24.60
28845;DHT22;15976;47.938;7.758;2023-07-09T11:05:55;47.30;24.20
28845;DHT22;15976;47.938;7.758;2023-07-09T11:08:37;47.80;23.80
28845;DHT22;15976;47.938;7.758;2023-07-09T11:11:15;48.20;23.20
28845;DHT22;15976;47.938;7.758;2023-07-09T11:13:50;48.50;23.10
28845;DHT22;15976;47.938;7.758;2023-07-09T11:16:35;48.70;22.30
28845;DHT22;15976;47.938;7.758;2023-07-09T11:19:05;48.70;22.10
28845;DHT22;15976;47.938;7.758;2023-07-09T11:24:33;48.70;22.00
28845;DHT22;15976;47.938;7.758;2023-07-09T11:27:00;48.90;22.00
28845;DHT22;15976;47.938;7.758;2023-07-09T11:29:28;48.80;22.00
28845;DHT22;15976;47.938;7.758;2023-07-09T11:32:07;48.80;22.10
28845;DHT22;15976;47.938;7.758;2023-07-09T11:34:45;49.10;21.90
28845;DHT22;15976;47.938;7.758;2023-07-09T11:37:13;49.50;21.80
28845;DHT22;15976;47.938;7.758;2023-07-09T11:42:28;49.90;21.40
28845;DHT22;15976;47.938;7.758;2023-07-09T11:45:10;50.30;21.30
28845;DHT22;15976;47.938;7.758;2023-07-09T11:47:54;50.60;20.70
28845;DHT22;15976;47.938;7.758;2023-07-09T11:50:32;50.30;20.40
28845;DHT22;15976;47.938;7.758;2023-07-09T11:53:12;50.00;20.70
28845;DHT22;15976;47.938;7.758;2023-07-09T11:55:45;50.10;20.50
28845;DHT22;15976;47.938;7.758;2023-07-09T11:58:15;50.50;20.60
28845;DHT22;15976;47.938;7.758;2023-07-09T12:00:51;50.90;20.30
28845;DHT22;15976;47.938;7.758;2023-07-09T12:03:31;51.20;20.10
28845;DHT22;15976;47.938;7.758;2023-07-09T12:06:02;51.60;20.10
28845;DHT22;15976;47.938;7.758;2023-07-09T12:08:38;51.70;20.20
28845;DHT22;15976;47.938;7.758;2023-07-09T12:11:16;51.70;19.90
28845;DHT22;15976;47.938;7.758;2023-07-09T12:13:44;51.70;19.90
28845;DHT22;15976;47.938;7.758;2023-07-09T12:16:26;51.50;19.80
28845;DHT22;15976;47.938;7.758;2023-07-09T12:18:54;51.50;20.00
28845;DHT22;15976;47.938;7.758;2023-07-09T12:21:22;51.60;19.80
28845;DHT22;15976;47.938;7.758;2023-07-09T12:23:50;51.50;19.90
28845;DHT22;15976;47.938;7.758;2023-07-09T12:26:27;51.60;19.90
28845;DHT22;15976;47.938;7.758;2023-07-09T12:29:12;51.80;19.30
28845;DHT22;15976;47.938;7.758;2023-07-09T12:32:16;51.50;19.80
28845;DHT22;15976;47.938;7.758;2023-07-09T12:38:38;52.00;19.80
28845;DHT22;15976;47.938;7.758;2023-07-09T12:42:21;52.10;19.50
28845;DHT22;15976;47.938;7.758;2023-07-09T12:45:19;52.20;19.50
28845;DHT22;15976;47.938;7.758;2023-07-09T12:48:26;52.10;19.50
28845;DHT22;15976;47.938;7.758;2023-07-09T12:51:28;52.10;19.60
28845;DHT22;15976;47.938;7.758;2023-07-09T12:54:19;52.30;19.50
28845;DHT22;15976;47.938;7.758;2023-07-09T12:57:01;52.30;19.60
28845;DHT22;15976;47.938;7.758;2023-07-09T12:59:48;52.40;19.50
28845;DHT22;15976;47.938;7.758;2023-07-09T13:02:24;52.20;19.50
28845;DHT22;15976;47.938;7.758;2023-07-09T13:05:20;52.20;19.70
28845;DHT22;15976;47.938;7.758;2023-07-09T13:07:58;52.30;19.70
28845;DHT22;15976;47.938;7.758;2023-07-09T13:11:21;52.40;19.60
28845;DHT22;15976;47.938;7.758;2023-07-09T13:14:31;52.70;19.20
28845;DHT22;15976;47.938;7.758;2023-07-09T13:17:29;52.90;19.10
28845;DHT22;15976;47.938;7.758;2023-07-09T13:23:23;52.90;19.50
28845;DHT22;15976;47.938;7.758;2023-07-09T13:26:13;52.90;19.30
28845;DHT22;15976;47.938;7.758;2023-07-09T13:29:09;53.20;19.20
28845;DHT22;15976;47.938;7.758;2023-07-09T13:31:45;53.50;19.00
28845;DHT22;15976;47.938;7.758;2023-07-09T13:34:22;53.70;18.80
28845;DHT22;15976;47.938;7.758;2023-07-09T13:36:50;53.70;19.20
28845;DHT22;15976;47.938;7.758;2023-07-09T13:39:18;53.80;19.30
28845;DHT22;15976;47.938;7.758;2023-07-09T13:41:47;53.90;19.10
28845;DHT22;15976;47.938;7.758;2023-07-09T13:44:24;53.90;18.60
28845;DHT22;15976;47.938;7.758;2023-07-09T13:46:52;53.70;18.70
28845;DHT22;15976;47.938;7.758;2023-07-09T13:49:21;53.70;18.80
28845;DHT22;15976;47.938;7.758;2023-07-09T13:51:51;53.70;18.60
28845;DHT22;15976;47.938;7.758;2023-07-09T13:54:30;53.60;18.40
28845;DHT22;15976;47.938;7.758;2023-07-09T13:57:20;53.60;18.40
28845;DHT22;15976;47.938;7.758;2023-07-09T13:59:50;53.40;19.00
28845;DHT22;15976;47.938;7.758;2023-07-09T14:02:28;53.50;19.10
28845;DHT22;15976;47.938;7.758;2023-07-09T14:05:10;53.70;18.90
28845;DHT22;15976;47.938;7.758;2023-07-09T14:07:41;54.00;18.50
28845;DHT22;15976;47.938;7.758;2023-07-09T14:10:11;53.90;18.20
28845;DHT22;15976;47.938;7.758;2023-07-09T14:12:45;53.90;18.60
28845;DHT22;15976;47.938;7.758;2023-07-09T14:15:19;54.00;18.40
28845;DHT22;15976;47.938;7.758;2023-07-09T14:17:48;53.80;17.90
28845;DHT22;15976;47.938;7.758;2023-07-09T14:20:44;53.60;18.00
28845;DHT22;15976;47.938;7.758;2023-07-09T14:23:51;53.50;17.90
28845;DHT22;15976;47.938;7.758;2023-07-09T14:26:53;53.40;18.00
28845;DHT22;15976;47.938;7.758;2023-07-09T14:29:53;53.20;18.10
28845;DHT22;15976;47.938;7.758;2023-07-09T14:32:36;53.10;18.00
28845;DHT22;15976;47.938;7.758;2023-07-09T14:35:24;53.10;18.30
28845;DHT22;15976;47.938;7.758;2023-07-09T14:37:57;53.40;18.00
28845;DHT22;15976;47.938;7.758;2023-07-09T14:40:35;53.50;17.80
28845;DHT22;15976;47.938;7.758;2023-07-09T14:48:24;52.40;17.80
28845;DHT22;15976;47.938;7.758;2023-07-09T14:54:49;52.30;18.10
28845;DHT22;15976;47.938;7.758;2023-07-09T14:57:55;52.40;18.00
28845;DHT22;15976;47.938;7.758;2023-07-09T15:01:48;52.20;18.20
28845;DHT22;15976;47.938;7.758;2023-07-09T15:05:00;52.00;17.80
28845;DHT22;15976;47.938;7.758;2023-07-09T15:08:09;52.10;17.70
28845;DHT22;15976;47.938;7.758;2023-07-09T15:11:29;51.90;17.50
28845;DHT22;15976;47.938;7.758;2023-07-09T15:15:53;51.40;17.40
28845;DHT22;15976;47.938;7.758;2023-07-09T15:19:25;50.80;17.60
28845;DHT22;15976;47.938;7.758;2023-07-09T15:22:00;50.10;17.80
28845;DHT22;15976;47.938;7.758;2023-07-09T15:24:49;49.40;18.30
28845;DHT22;15976;47.938;7.758;2023-07-09T15:27:24;48.60;18.80
28845;DHT22;15976;47.938;7.758;2023-07-09T15:29:54;47.70;19.00
28845;DHT22;15976;47.938;7.758;2023-07-09T15:32:25;46.80;19.60
28845;DHT22;15976;47.938;7.758;2023-07-09T15:34:53;46.20;19.70
28845;DHT22;15976;47.938;7.758;2023-07-09T15:37:22;45.70;19.90
28845;DHT22;15976;47.938;7.758;2023-07-09T15:39:50;45.20;20.30
28845;DHT22;15976;47.938;7.758;2023-07-09T15:42:20;44.70;20.60
28845;DHT22;15976;47.938;7.758;2023-07-09T15:44:57;44.30;20.80
28845;DHT22;15976;47.938;7.758;2023-07-09T15:47:28;43.80;20.90
28845;DHT22;15976;47.938;7.758;2023-07-09T15:50:04;43.40;21.20
28845;DHT22;15976;47.938;7.758;2023-07-09T15:52:32;43.00;21.40
28845;DHT22;15976;47.938;7.758;2023-07-09T15:55:00;42.60;21.20
28845;DHT22;15976;47.938;7.758;2023-07-09T15:57:30;42.40;21.20
28845;DHT22;15976;47.938;7.758;2023-07-09T16:02:55;41.60;21.90
28845;DHT22;15976;47.938;7.758;2023-07-09T16:05:47;41.50;22.00
28845;DHT22;15976;47.938;7.758;2023-07-09T16:08:20;41.30;22.00
28845;DHT22;15976;47.938;7.758;2023-07-09T16:10:59;41.00;22.20
28845;DHT22;15976;47.938;7.758;2023-07-09T16:13:28;40.80;22.60
28845;DHT22;15976;47.938;7.758;2023-07-09T16:15:57;40.60;22.80
28845;DHT22;15976;47.938;7.758;2023-07-09T16:18:27;40.50;22.60
28845;DHT22;15976;47.938;7.758;2023-07-09T16:20:59;40.40;22.60
28845;DHT22;15976;47.938;7.758;2023-07-09T16:23:29;40.30;22.50
28845;DHT22;15976;47.938;7.758;2023-07-09T16:25:58;40.20;22.30
28845;DHT22;15976;47.938;7.758;2023-07-09T16:28:27;40.00;22.10
28845;DHT22;15976;47.938;7.758;2023-07-09T16:30:58;39.80;22.10
28845;DHT22;15976;47.938;7.758;2023-07-09T16:33:30;39.60;22.40
28845;DHT22;15976;47.938;7.758;2023-07-09T16:36:08;39.50;22.60
28845;DHT22;15976;47.938;7.758;2023-07-09T16:38:40;39.40;22.80
28845;DHT22;15976;47.938;7.758;2023-07-09T16:41:12;39.20;22.90
28845;DHT22;15976;47.938;7.758;2023-07-09T16:43:43;39.10;23.10
28845;DHT22;15976;47.938;7.758;2023-07-09T16:48:42;39.00;23.10
28845;DHT22;15976;47.938;7.758;2023-07-09T16:51:09;38.90;22.90
28845;DHT22;15976;47.938;7.758;2023-07-09T16:53:37;38.90;23.00
28845;DHT22;15976;47.938;7.758;2023-07-09T16:56:04;38.70;23.10
28845;DHT22;15976;47.938;7.758;2023-07-09T16:58:36;38.60;23.40
28845;DHT22;15976;47.938;7.758;2023-07-09T17:01:04;38.40;24.10